createdAt,value
2023-04-30T00:00:45.930Z,72.38
2023-04-30T00:01:42.798Z,72.65
2023-04-30T00:02:39.762Z,73.01
2023-04-30T00:03:36.894Z,72.58
2023-04-30T00:04:33.593Z,72.46
2023-04-30T00:05:30.457Z,71.90
2023-04-30T00:06:28.396Z,71.83
2023-04-30T00:07:25.152Z,71.36
2023-04-30T00:08:21.857Z,71.18
2023-04-30T00:09:18.491Z,70.60
2023-04-30T00:10:15.085Z,70.75
2023-04-30T00:11:11.888Z,70.90
2023-04-30T00:12:08.831Z,71.42
2023-04-30T00:13:05.419Z,73.96
2023-04-30T00:14:02.060Z,75.24
2023-04-30T00:14:58.766Z,77.20
2023-04-30T00:15:55.794Z,77.45
2023-04-30T00:16:52.407Z,76.79
2023-04-30T00:17:49.037Z,76.92
2023-04-30T00:18:45.802Z,76.63
2023-04-30T00:19:42.973Z,75.81
2023-04-30T00:20:39.535Z,75.69
2023-04-30T00:21:36.577Z,75.81
2023-04-30T00:22:33.529Z,75.49
2023-04-30T00:23:30.172Z,75.35
2023-04-30T00:24:27.051Z,76.12
2023-04-30T00:25:24.713Z,76.15
2023-04-30T00:26:21.293Z,76.56
2023-04-30T00:27:18.461Z,77.05
2023-04-30T00:28:15.025Z,77.17
2023-04-30T00:29:12.428Z,77.74
2023-04-30T00:30:09.300Z,77.23
2023-04-30T00:31:09.165Z,77.75
2023-04-30T00:32:06.480Z,78.34
2023-04-30T00:33:03.175Z,79.10
2023-04-30T00:33:59.823Z,79.70
2023-04-30T00:34:56.442Z,79.52
2023-04-30T00:35:53.047Z,80.05
2023-04-30T00:36:49.608Z,80.09
2023-04-30T00:37:46.336Z,80.23
2023-04-30T00:38:42.931Z,80.47
2023-04-30T00:39:39.531Z,79.58
2023-04-30T00:40:37.614Z,79.48
2023-04-30T00:41:35.827Z,78.76
2023-04-30T00:42:32.439Z,78.88
2023-04-30T00:43:29.049Z,78.93
2023-04-30T00:44:26.082Z,78.26
2023-04-30T00:45:23.564Z,77.90
2023-04-30T00:46:20.617Z,77.46
2023-04-30T00:47:17.518Z,77.05
2023-04-30T00:48:14.120Z,77.03
2023-04-30T00:49:10.748Z,76.79
2023-04-30T00:50:07.737Z,76.18
2023-04-30T00:51:04.891Z,75.58
2023-04-30T00:52:01.987Z,75.86
2023-04-30T00:52:59.719Z,76.33
2023-04-30T00:53:56.650Z,75.66
2023-04-30T00:54:54.440Z,75.77
2023-04-30T00:55:51.951Z,75.58
2023-04-30T00:56:49.315Z,74.85
2023-04-30T00:57:46.722Z,75.00
2023-04-30T00:58:43.587Z,74.93
2023-04-30T00:59:41.815Z,75.32
2023-04-30T01:00:38.575Z,77.52
2023-04-30T01:01:35.426Z,78.68
2023-04-30T01:02:32.198Z,78.50
2023-04-30T01:03:29.121Z,77.98
2023-04-30T01:04:26.424Z,79.22
2023-04-30T01:05:23.149Z,80.07
2023-04-30T01:06:19.804Z,80.26
2023-04-30T01:07:16.631Z,81.18
2023-04-30T01:08:13.363Z,81.16
2023-04-30T01:09:12.551Z,81.54
2023-04-30T01:10:09.696Z,82.17
2023-04-30T01:11:17.629Z,80.81
2023-04-30T01:12:19.651Z,81.45
2023-04-30T01:13:19.677Z,81.75
2023-04-30T01:14:29.816Z,81.53
2023-04-30T01:15:43.160Z,81.02
2023-04-30T01:17:06.452Z,80.59
2023-04-30T01:18:13.666Z,82.15
2023-04-30T01:19:52.496Z,81.77
2023-04-30T01:20:53.105Z,80.77
2023-04-30T01:21:50.126Z,80.32
2023-04-30T01:23:11.181Z,80.20
2023-04-30T01:24:16.608Z,80.29
2023-04-30T01:25:40.731Z,81.95
2023-04-30T01:27:08.297Z,81.96
2023-04-30T01:28:09.340Z,82.11
2023-04-30T01:29:07.009Z,82.64
2023-04-30T01:30:04.885Z,82.70
2023-04-30T01:31:01.563Z,82.75
2023-04-30T01:31:58.200Z,82.78
2023-04-30T01:32:54.913Z,82.64
2023-04-30T01:33:51.505Z,82.41
2023-04-30T01:34:48.179Z,82.21
2023-04-30T01:36:03.237Z,82.95
2023-04-30T01:37:10.039Z,82.89
2023-04-30T01:38:33.728Z,83.54
2023-04-30T01:39:48.809Z,83.35
2023-04-30T01:41:02.949Z,83.72
2023-04-30T01:42:07.946Z,82.62
2023-04-30T01:43:23.507Z,81.57
2023-04-30T01:44:38.343Z,82.61
2023-04-30T01:46:12.287Z,84.06
2023-04-30T01:47:20.836Z,84.13
2023-04-30T01:48:30.869Z,84.32
2023-04-30T01:49:41.847Z,83.96
2023-04-30T01:50:50.977Z,84.65
2023-04-30T01:51:48.719Z,85.09
2023-04-30T01:52:57.435Z,84.76
2023-04-30T01:53:58.126Z,82.90
2023-04-30T01:55:17.817Z,81.88
2023-04-30T01:56:52.032Z,81.65
2023-04-30T01:58:00.788Z,82.64
2023-04-30T01:58:57.992Z,82.67
2023-04-30T01:59:54.911Z,83.42
2023-04-30T02:00:52.306Z,82.92
2023-04-30T02:01:49.053Z,83.14
2023-04-30T02:02:45.788Z,83.44
2023-04-30T02:03:42.490Z,83.30
2023-04-30T02:04:39.184Z,84.34
2023-04-30T02:05:35.896Z,84.89
2023-04-30T02:06:33.173Z,85.60
2023-04-30T02:07:41.637Z,85.83
2023-04-30T02:08:38.480Z,85.04
2023-04-30T02:09:35.133Z,84.41
2023-04-30T02:10:31.912Z,83.46
2023-04-30T02:11:29.419Z,82.69
2023-04-30T02:12:26.129Z,81.75
2023-04-30T02:13:22.822Z,81.30
2023-04-30T02:14:19.448Z,81.64
2023-04-30T02:15:16.210Z,82.04
2023-04-30T02:16:12.871Z,81.47
2023-04-30T02:17:09.506Z,82.12
2023-04-30T02:18:06.116Z,82.63
2023-04-30T02:19:02.932Z,83.46
2023-04-30T02:20:00.565Z,83.80
2023-04-30T02:20:57.184Z,85.00
2023-04-30T02:21:54.039Z,85.87
2023-04-30T02:22:51.571Z,85.64
2023-04-30T02:23:48.238Z,85.92
2023-04-30T02:24:44.988Z,86.23
2023-04-30T02:25:41.902Z,86.23
2023-04-30T02:26:38.601Z,86.55
2023-04-30T02:27:35.274Z,86.69
2023-04-30T02:28:31.874Z,86.62
2023-04-30T02:29:28.498Z,87.35
2023-04-30T02:30:25.165Z,87.67
2023-04-30T02:31:21.943Z,87.59
2023-04-30T02:32:18.611Z,87.53
2023-04-30T02:33:15.255Z,86.76
2023-04-30T02:34:11.901Z,86.85
2023-04-30T02:35:08.954Z,87.20
2023-04-30T02:36:05.740Z,86.44
2023-04-30T02:37:03.192Z,86.24
2023-04-30T02:37:59.773Z,85.46
2023-04-30T02:38:56.335Z,85.29
2023-04-30T02:39:54.052Z,85.02
2023-04-30T02:40:51.079Z,85.01
2023-04-30T02:41:47.698Z,84.87
2023-04-30T02:42:44.430Z,84.94
2023-04-30T02:43:41.051Z,84.95
2023-04-30T02:44:37.777Z,84.74
2023-04-30T02:45:34.557Z,84.63
2023-04-30T02:46:31.123Z,85.63
2023-04-30T02:47:27.817Z,85.32
2023-04-30T02:48:24.434Z,84.81
2023-04-30T02:49:21.188Z,84.24
2023-04-30T02:50:17.775Z,83.10
2023-04-30T02:51:14.472Z,84.07
2023-04-30T02:52:11.121Z,85.05
2023-04-30T02:53:07.770Z,85.38
2023-04-30T02:54:04.449Z,85.53
2023-04-30T02:55:01.030Z,85.29
2023-04-30T02:55:59.262Z,85.81
2023-04-30T02:56:56.298Z,85.91
2023-04-30T02:57:52.909Z,84.12
2023-04-30T02:58:49.764Z,82.62
2023-04-30T02:59:46.581Z,82.16
2023-04-30T03:00:43.213Z,82.06
2023-04-30T03:01:40.337Z,81.78
2023-04-30T03:02:37.075Z,82.34
2023-04-30T03:03:33.815Z,83.20
2023-04-30T03:04:30.568Z,84.00
2023-04-30T03:05:27.247Z,83.69
2023-04-30T03:06:23.894Z,83.69
2023-04-30T03:07:20.612Z,83.76
2023-04-30T03:08:17.210Z,83.27
2023-04-30T03:09:13.875Z,82.92
2023-04-30T03:10:10.966Z,82.89
2023-04-30T03:11:07.585Z,82.76
2023-04-30T03:12:04.433Z,82.98
2023-04-30T03:13:01.230Z,84.05
2023-04-30T03:13:58.004Z,84.93
2023-04-30T03:14:54.640Z,84.99
2023-04-30T03:15:57.386Z,84.76
2023-04-30T03:16:54.136Z,84.36
2023-04-30T03:17:50.850Z,83.72
2023-04-30T03:18:48.704Z,82.83
2023-04-30T03:19:45.261Z,82.46
2023-04-30T03:20:42.419Z,81.71
2023-04-30T03:21:39.119Z,81.27
2023-04-30T03:22:35.722Z,81.08
2023-04-30T03:23:32.397Z,81.59
2023-04-30T03:24:28.998Z,82.54
2023-04-30T03:25:25.819Z,81.48
2023-04-30T03:26:22.623Z,81.29
2023-04-30T03:27:19.324Z,80.87
2023-04-30T03:28:16.037Z,80.29
2023-04-30T03:29:12.699Z,79.84
2023-04-30T03:30:09.557Z,79.89
2023-04-30T03:31:06.390Z,80.26
2023-04-30T03:32:03.332Z,81.32
2023-04-30T03:33:00.002Z,80.39
2023-04-30T03:33:56.783Z,80.16
2023-04-30T03:34:53.423Z,79.85
2023-04-30T03:35:50.585Z,79.13
2023-04-30T03:36:47.385Z,79.07
2023-04-30T03:37:44.033Z,79.86
2023-04-30T03:38:42.304Z,79.95
2023-04-30T03:39:38.977Z,80.27
2023-04-30T03:40:35.608Z,81.77
2023-04-30T03:41:32.204Z,79.95
2023-04-30T03:42:28.913Z,81.52
2023-04-30T03:43:25.643Z,82.45
2023-04-30T03:44:23.126Z,81.78
2023-04-30T03:45:20.024Z,82.53
2023-04-30T03:46:16.738Z,83.71
2023-04-30T03:47:13.325Z,83.34
2023-04-30T03:48:10.207Z,82.43
2023-04-30T03:49:06.872Z,81.90
2023-04-30T03:50:04.158Z,82.13
2023-04-30T03:51:00.764Z,82.16
2023-04-30T03:51:57.348Z,81.91
2023-04-30T03:52:53.985Z,81.15
2023-04-30T03:53:50.545Z,80.18
2023-04-30T03:54:47.237Z,80.39
2023-04-30T03:55:44.058Z,80.92
2023-04-30T03:56:41.260Z,80.95
2023-04-30T03:57:38.540Z,81.11
2023-04-30T03:58:35.182Z,80.83
2023-04-30T03:59:32.738Z,80.96
2023-04-30T04:00:29.476Z,80.23
2023-04-30T04:01:26.297Z,78.81
2023-04-30T04:02:23.332Z,79.92
2023-04-30T04:03:20.549Z,80.10
2023-04-30T04:04:17.454Z,81.30
2023-04-30T04:05:14.079Z,82.61
2023-04-30T04:06:11.123Z,82.28
2023-04-30T04:07:09.646Z,82.56
2023-04-30T04:08:06.875Z,79.88
2023-04-30T04:09:04.766Z,79.32
2023-04-30T04:10:01.447Z,80.08
2023-04-30T04:10:58.164Z,80.46
2023-04-30T04:11:54.782Z,80.13
2023-04-30T04:12:51.362Z,80.29
2023-04-30T04:13:48.112Z,80.66
2023-04-30T04:14:44.725Z,81.15
2023-04-30T04:15:41.426Z,81.90
2023-04-30T04:16:38.430Z,82.02
2023-04-30T04:17:35.152Z,82.54
2023-04-30T04:18:31.780Z,82.28
2023-04-30T04:19:28.428Z,82.86
2023-04-30T04:20:25.099Z,83.48
2023-04-30T04:21:21.887Z,83.41
2023-04-30T04:22:18.514Z,82.75
2023-04-30T04:23:15.455Z,82.17
2023-04-30T04:24:12.477Z,82.48
2023-04-30T04:25:09.939Z,82.30
2023-04-30T04:26:07.154Z,82.10
2023-04-30T04:27:03.927Z,82.74
2023-04-30T04:28:00.697Z,82.42
2023-04-30T04:28:57.276Z,82.27
2023-04-30T04:29:55.124Z,82.35
2023-04-30T04:30:53.000Z,82.78
2023-04-30T04:31:51.166Z,82.51
2023-04-30T04:32:50.253Z,81.00
2023-04-30T04:33:46.942Z,80.49
2023-04-30T04:34:44.138Z,79.94
2023-04-30T04:35:40.907Z,80.46
2023-04-30T04:36:37.741Z,78.85
2023-04-30T04:37:35.171Z,78.79
2023-04-30T04:38:31.917Z,78.24
2023-04-30T04:39:28.565Z,78.78
2023-04-30T04:40:25.339Z,78.30
2023-04-30T04:41:23.103Z,78.20
2023-04-30T04:42:20.583Z,77.79
2023-04-30T04:43:17.339Z,77.50
2023-04-30T04:44:13.988Z,77.99
2023-04-30T04:45:11.597Z,77.63
2023-04-30T04:46:10.094Z,77.92
2023-04-30T04:47:08.289Z,78.42
2023-04-30T04:48:05.086Z,79.01
2023-04-30T04:49:02.060Z,78.90
2023-04-30T04:49:58.676Z,79.40
2023-04-30T04:50:55.346Z,77.75
2023-04-30T04:51:51.968Z,78.28
2023-04-30T04:52:48.724Z,78.32
2023-04-30T04:53:45.378Z,78.79
2023-04-30T04:54:42.243Z,79.45
2023-04-30T04:55:39.019Z,79.02
2023-04-30T04:56:35.685Z,79.30
2023-04-30T04:57:32.255Z,79.34
2023-04-30T04:58:28.884Z,79.39
2023-04-30T04:59:25.547Z,79.93
2023-04-30T05:00:23.320Z,80.07
2023-04-30T05:01:20.099Z,79.83
2023-04-30T05:02:16.919Z,79.38
2023-04-30T05:03:14.450Z,77.96
2023-04-30T05:04:11.476Z,77.84
2023-04-30T05:05:08.559Z,78.64
2023-04-30T05:06:05.963Z,78.98
2023-04-30T05:07:03.228Z,78.27
2023-04-30T05:07:59.821Z,77.12
2023-04-30T05:08:56.632Z,77.67
2023-04-30T05:09:53.683Z,77.54
2023-04-30T05:10:50.499Z,77.97
2023-04-30T05:11:49.155Z,78.17
2023-04-30T05:12:46.218Z,78.22
2023-04-30T05:13:42.849Z,77.58
2023-04-30T05:14:39.738Z,77.05
2023-04-30T05:15:37.201Z,77.39
2023-04-30T05:16:34.109Z,77.49
2023-04-30T05:17:30.875Z,77.53
2023-04-30T05:18:27.518Z,77.78
2023-04-30T05:19:24.175Z,77.68
2023-04-30T05:20:20.801Z,77.75
2023-04-30T05:21:17.405Z,77.57
2023-04-30T05:22:14.565Z,76.66
2023-04-30T05:23:11.500Z,77.09
2023-04-30T05:24:08.146Z,76.25
2023-04-30T05:25:05.157Z,75.33
2023-04-30T05:26:02.363Z,74.49
2023-04-30T05:26:59.001Z,74.56
2023-04-30T05:27:56.456Z,75.56
2023-04-30T05:28:53.330Z,75.43
2023-04-30T05:29:49.936Z,75.20
2023-04-30T05:30:46.810Z,75.21
2023-04-30T05:31:43.801Z,75.22
2023-04-30T05:32:40.643Z,74.72
2023-04-30T05:33:37.437Z,74.80
2023-04-30T05:34:34.174Z,75.51
2023-04-30T05:35:36.208Z,76.24
2023-04-30T05:36:32.898Z,76.02
2023-04-30T05:37:29.618Z,75.95
2023-04-30T05:38:26.140Z,75.92
2023-04-30T05:39:22.881Z,75.27
2023-04-30T05:40:19.448Z,74.99
2023-04-30T05:41:16.123Z,73.50
2023-04-30T05:42:12.747Z,73.80
2023-04-30T05:43:09.370Z,74.47
2023-04-30T05:44:06.527Z,74.19
2023-04-30T05:45:03.361Z,75.47
2023-04-30T05:46:00.075Z,76.13
2023-04-30T05:46:56.750Z,75.93
2023-04-30T05:47:53.654Z,76.05
2023-04-30T05:48:50.425Z,76.03
2023-04-30T05:49:47.069Z,75.43
2023-04-30T05:50:43.799Z,75.54
2023-04-30T05:51:40.434Z,75.21
2023-04-30T05:52:37.067Z,74.01
2023-04-30T05:53:33.775Z,74.05
2023-04-30T05:54:31.162Z,74.73
2023-04-30T05:55:27.941Z,74.52
2023-04-30T05:56:25.252Z,74.89
2023-04-30T05:57:22.073Z,74.37
2023-04-30T05:58:18.764Z,74.03
2023-04-30T05:59:15.438Z,74.04
2023-04-30T06:00:12.742Z,72.52
2023-04-30T06:01:11.140Z,71.67
2023-04-30T06:02:07.992Z,72.17
2023-04-30T06:03:04.781Z,71.90
2023-04-30T06:04:01.418Z,72.50
2023-04-30T06:04:58.179Z,72.40
2023-04-30T06:05:54.843Z,71.74
2023-04-30T06:06:51.643Z,73.04
2023-04-30T06:07:48.332Z,73.47
2023-04-30T06:08:45.634Z,74.36
2023-04-30T06:09:42.432Z,74.38
2023-04-30T06:10:39.311Z,74.15
2023-04-30T06:11:37.305Z,74.89
2023-04-30T06:12:34.179Z,74.22
2023-04-30T06:13:32.538Z,73.93
2023-04-30T06:14:29.427Z,73.54
2023-04-30T06:15:26.191Z,74.29
2023-04-30T06:16:23.880Z,74.72
2023-04-30T06:17:20.945Z,75.37
2023-04-30T06:18:17.577Z,75.36
2023-04-30T06:19:14.316Z,74.39
2023-04-30T06:20:11.882Z,74.26
2023-04-30T06:21:08.526Z,73.12
2023-04-30T06:22:05.190Z,72.23
2023-04-30T06:23:03.864Z,71.87
2023-04-30T06:24:00.641Z,70.71
2023-04-30T06:24:58.110Z,69.07
2023-04-30T06:25:54.771Z,68.12
2023-04-30T06:26:51.342Z,67.45
2023-04-30T06:27:47.986Z,65.47
2023-04-30T06:28:44.770Z,66.13
2023-04-30T06:29:41.359Z,63.38
2023-04-30T06:30:38.126Z,61.99
2023-04-30T06:31:34.817Z,62.18
2023-04-30T06:32:31.489Z,63.08
2023-04-30T06:33:28.223Z,64.02
2023-04-30T06:34:24.863Z,63.50
2023-04-30T06:35:21.494Z,63.88
2023-04-30T06:36:19.542Z,62.75
2023-04-30T06:37:16.410Z,63.02
2023-04-30T06:38:13.874Z,62.18
2023-04-30T06:39:10.471Z,61.67
2023-04-30T06:40:07.918Z,60.92
2023-04-30T06:41:04.640Z,62.72
2023-04-30T06:42:01.518Z,63.21
2023-04-30T06:42:58.181Z,63.78
2023-04-30T06:43:54.811Z,63.63
2023-04-30T06:44:51.480Z,64.77
2023-04-30T06:45:48.256Z,65.40
2023-04-30T06:46:44.948Z,65.54
2023-04-30T06:47:42.996Z,64.82
2023-04-30T06:48:39.879Z,63.56
2023-04-30T06:49:36.537Z,63.20
2023-04-30T06:50:33.082Z,62.94
2023-04-30T06:51:29.682Z,62.95
2023-04-30T06:52:26.449Z,62.03
2023-04-30T06:53:23.162Z,60.99
2023-04-30T06:54:19.798Z,60.86
2023-04-30T06:55:16.435Z,61.08
2023-04-30T06:56:13.264Z,59.53
2023-04-30T06:57:09.998Z,60.25
2023-04-30T06:58:06.704Z,59.52
2023-04-30T06:59:03.963Z,58.28
2023-04-30T07:00:00.670Z,58.60
2023-04-30T07:00:58.298Z,59.88
2023-04-30T07:01:54.994Z,59.15
2023-04-30T07:02:52.245Z,58.97
2023-04-30T07:03:49.280Z,58.37
2023-04-30T07:04:46.252Z,57.61
2023-04-30T07:05:42.966Z,57.25
2023-04-30T07:06:39.667Z,57.85
2023-04-30T07:07:36.309Z,57.53
2023-04-30T07:08:33.066Z,57.80
2023-04-30T07:09:30.080Z,57.52
2023-04-30T07:10:27.405Z,57.04
2023-04-30T07:11:24.071Z,54.69
2023-04-30T07:12:22.452Z,55.48
2023-04-30T07:13:19.164Z,53.01
2023-04-30T07:14:15.823Z,53.78
2023-04-30T07:15:12.524Z,54.35
2023-04-30T07:16:10.904Z,51.77
2023-04-30T07:17:07.674Z,53.04
2023-04-30T07:18:04.627Z,53.04
2023-04-30T07:19:01.415Z,51.58
2023-04-30T07:19:58.128Z,50.76
2023-04-30T07:20:55.354Z,50.01
2023-04-30T07:21:52.316Z,51.25
2023-04-30T07:22:49.003Z,53.08
2023-04-30T07:23:45.705Z,52.61
2023-04-30T07:24:42.442Z,53.66
2023-04-30T07:25:39.238Z,54.98
2023-04-30T07:26:36.544Z,53.37
2023-04-30T07:27:33.150Z,54.04
2023-04-30T07:28:29.921Z,56.18
2023-04-30T07:29:26.971Z,56.55
2023-04-30T07:30:25.213Z,54.59
2023-04-30T07:31:22.124Z,54.88
2023-04-30T07:32:18.763Z,55.36
2023-04-30T07:33:15.410Z,55.09
2023-04-30T07:34:13.375Z,56.21
2023-04-30T07:35:12.466Z,56.18
2023-04-30T07:36:09.184Z,56.64
2023-04-30T07:37:06.099Z,57.72
2023-04-30T07:38:02.725Z,58.48
2023-04-30T07:38:59.380Z,58.55
2023-04-30T07:39:56.990Z,58.06
2023-04-30T07:40:53.765Z,58.17
2023-04-30T07:41:50.328Z,58.50
2023-04-30T07:42:47.365Z,56.39
2023-04-30T07:43:44.009Z,57.49
2023-04-30T07:44:41.719Z,57.52
2023-04-30T07:45:38.522Z,57.73
2023-04-30T07:46:36.586Z,56.73
2023-04-30T07:47:33.506Z,57.75
2023-04-30T07:48:31.013Z,56.99
2023-04-30T07:49:28.347Z,57.19
2023-04-30T07:50:25.080Z,57.43
2023-04-30T07:51:21.783Z,57.74
2023-04-30T07:52:18.496Z,59.31
2023-04-30T07:53:15.095Z,58.62
2023-04-30T07:54:13.292Z,59.81
2023-04-30T07:55:12.831Z,59.84
2023-04-30T07:56:09.531Z,61.50
2023-04-30T07:57:06.846Z,60.37
2023-04-30T07:58:04.487Z,59.43
2023-04-30T07:59:01.109Z,61.49
2023-04-30T07:59:58.065Z,61.61
2023-04-30T08:00:55.030Z,60.00
2023-04-30T08:01:51.917Z,61.00
2023-04-30T08:02:49.909Z,61.42
2023-04-30T08:03:47.016Z,60.97
2023-04-30T08:04:43.988Z,61.81
2023-04-30T08:05:41.448Z,62.79
2023-04-30T08:06:38.261Z,62.73
2023-04-30T08:07:34.882Z,63.46
2023-04-30T08:08:31.517Z,63.57
2023-04-30T08:09:28.153Z,64.05
2023-04-30T08:10:25.731Z,63.80
2023-04-30T08:11:22.462Z,64.38
2023-04-30T08:12:19.133Z,64.89
2023-04-30T08:13:15.782Z,64.86
2023-04-30T08:14:12.480Z,64.29
2023-04-30T08:15:09.186Z,63.89
2023-04-30T08:16:06.170Z,65.75
2023-04-30T08:17:03.513Z,64.58
2023-04-30T08:18:00.216Z,61.73
2023-04-30T08:18:57.111Z,62.03
2023-04-30T08:19:53.883Z,62.12
2023-04-30T08:20:50.673Z,62.85
2023-04-30T08:21:47.396Z,62.31
2023-04-30T08:22:45.242Z,62.21
2023-04-30T08:23:42.171Z,61.60
2023-04-30T08:24:38.791Z,61.31
2023-04-30T08:25:36.209Z,61.19
2023-04-30T08:26:32.869Z,61.16
2023-04-30T08:27:31.855Z,59.94
2023-04-30T08:28:28.512Z,60.75
2023-04-30T08:29:25.168Z,60.93
2023-04-30T08:30:21.848Z,60.90
2023-04-30T08:31:18.568Z,60.59
2023-04-30T08:32:15.846Z,61.29
2023-04-30T08:33:12.765Z,61.72
2023-04-30T08:34:11.492Z,59.92
2023-04-30T08:35:09.306Z,58.06
2023-04-30T08:36:06.700Z,57.97
2023-04-30T08:37:03.318Z,56.35
2023-04-30T08:37:59.924Z,57.11
2023-04-30T08:38:57.616Z,59.04
2023-04-30T08:39:54.547Z,58.16
2023-04-30T08:41:12.725Z,55.60
2023-04-30T08:42:13.967Z,55.99
2023-04-30T08:43:11.916Z,56.48
2023-04-30T08:44:12.350Z,59.34
2023-04-30T08:45:12.974Z,58.85
2023-04-30T08:46:11.296Z,58.65
2023-04-30T08:47:10.506Z,58.99
2023-04-30T08:48:11.636Z,58.49
2023-04-30T08:49:08.332Z,57.08
2023-04-30T08:50:06.300Z,57.65
2023-04-30T08:51:04.365Z,57.62
2023-04-30T08:52:01.299Z,58.32
2023-04-30T08:52:59.103Z,56.84
2023-04-30T08:53:57.654Z,57.55
2023-04-30T08:54:57.479Z,57.31
2023-04-30T08:55:54.203Z,56.23
2023-04-30T08:56:50.931Z,55.69
2023-04-30T08:57:47.826Z,55.29
2023-04-30T08:58:44.737Z,53.41
2023-04-30T08:59:44.863Z,53.46
2023-04-30T09:00:41.724Z,53.61
2023-04-30T09:01:38.829Z,51.13
2023-04-30T09:02:39.560Z,51.44
2023-04-30T09:03:37.072Z,54.29
2023-04-30T09:04:33.938Z,51.82
2023-04-30T09:05:31.107Z,51.23
2023-04-30T09:06:27.860Z,51.15
2023-04-30T09:07:25.633Z,51.01
2023-04-30T09:08:42.203Z,50.35
2023-04-30T09:09:39.650Z,50.49
2023-04-30T09:10:36.383Z,49.82
2023-04-30T09:11:32.982Z,49.53
2023-04-30T09:12:29.575Z,49.21
2023-04-30T09:13:41.178Z,51.28
2023-04-30T09:14:40.294Z,51.04
2023-04-30T09:15:41.322Z,52.00
2023-04-30T09:16:52.782Z,52.14
2023-04-30T09:17:49.598Z,54.08
2023-04-30T09:18:47.183Z,54.09
2023-04-30T09:19:43.840Z,54.82
2023-04-30T09:20:58.508Z,54.00
2023-04-30T09:21:55.593Z,55.23
2023-04-30T09:23:06.213Z,59.50
2023-04-30T09:24:05.043Z,61.05
2023-04-30T09:25:01.654Z,63.08
2023-04-30T09:25:58.339Z,68.09
2023-04-30T09:26:55.096Z,68.22
2023-04-30T09:28:07.961Z,71.79
2023-04-30T09:29:08.408Z,72.25
2023-04-30T09:30:05.916Z,70.28
2023-04-30T09:31:03.369Z,68.81
2023-04-30T09:32:09.161Z,69.31
2023-04-30T09:33:07.004Z,69.31
2023-04-30T09:34:06.316Z,69.40
2023-04-30T09:35:03.009Z,69.24
2023-04-30T09:36:09.376Z,71.20
2023-04-30T09:37:06.478Z,74.13
2023-04-30T09:38:03.915Z,75.32
2023-04-30T09:39:18.189Z,74.75
2023-04-30T09:40:14.937Z,76.35
2023-04-30T09:41:27.788Z,75.47
2023-04-30T09:42:24.980Z,76.26
2023-04-30T09:43:21.706Z,77.49
2023-04-30T09:44:35.853Z,78.90
2023-04-30T09:45:51.571Z,79.33
2023-04-30T09:46:51.072Z,82.15
2023-04-30T09:47:47.800Z,82.71
2023-04-30T09:48:44.874Z,84.29
2023-04-30T09:49:43.294Z,81.84
2023-04-30T09:50:41.889Z,82.45
2023-04-30T09:51:55.630Z,84.16
2023-04-30T09:52:54.059Z,85.67
2023-04-30T09:53:52.494Z,86.78
2023-04-30T09:54:49.595Z,88.08
2023-04-30T09:55:51.077Z,88.74
2023-04-30T09:56:48.119Z,89.72
2023-04-30T09:57:44.921Z,89.62
2023-04-30T09:58:45.439Z,90.19
2023-04-30T09:59:45.028Z,88.02
2023-04-30T10:00:42.826Z,86.73
2023-04-30T10:01:41.119Z,88.45
2023-04-30T10:02:38.943Z,88.81
2023-04-30T10:03:35.778Z,88.88
2023-04-30T10:04:36.202Z,89.11
2023-04-30T10:05:37.604Z,88.21
2023-04-30T10:06:35.894Z,87.22
2023-04-30T10:07:38.832Z,85.31
2023-04-30T10:08:42.701Z,86.93
2023-04-30T10:09:51.554Z,82.81
2023-04-30T10:10:53.669Z,85.11
2023-04-30T10:11:50.887Z,82.04
2023-04-30T10:13:01.578Z,80.39
2023-04-30T10:14:02.996Z,79.28
2023-04-30T10:15:09.773Z,73.93
2023-04-30T10:16:12.029Z,73.44
2023-04-30T10:17:15.159Z,74.27
2023-04-30T10:18:19.434Z,74.99
2023-04-30T10:19:22.704Z,74.59
2023-04-30T10:20:21.966Z,75.91
2023-04-30T10:21:22.123Z,72.05
2023-04-30T10:22:19.682Z,74.39
2023-04-30T10:23:16.727Z,76.44
2023-04-30T10:24:15.150Z,78.71
2023-04-30T10:25:13.586Z,77.06
2023-04-30T10:26:14.354Z,73.96
2023-04-30T10:27:11.406Z,75.46
2023-04-30T10:28:09.205Z,76.24
2023-04-30T10:29:07.350Z,79.96
2023-04-30T10:30:07.558Z,80.93
2023-04-30T10:31:06.225Z,80.66
2023-04-30T10:32:05.429Z,76.40
2023-04-30T10:33:31.541Z,78.15
2023-04-30T10:34:53.117Z,80.83
2023-04-30T10:36:09.020Z,81.08
2023-04-30T10:37:14.791Z,78.76
2023-04-30T10:38:19.867Z,73.59
2023-04-30T10:39:22.421Z,77.83
2023-04-30T10:40:19.094Z,78.88
2023-04-30T10:41:15.715Z,81.00
2023-04-30T10:42:13.390Z,83.73
2023-04-30T10:43:11.927Z,85.99
2023-04-30T10:44:08.570Z,84.64
2023-04-30T10:45:05.697Z,84.36
2023-04-30T10:46:02.539Z,86.12
2023-04-30T10:47:03.331Z,88.74
2023-04-30T10:48:03.213Z,89.07
2023-04-30T10:49:00.271Z,89.65
2023-04-30T10:50:05.262Z,89.18
2023-04-30T10:51:01.945Z,89.14
2023-04-30T10:52:03.725Z,86.44
2023-04-30T10:53:07.251Z,85.77
2023-04-30T10:54:04.446Z,86.99
2023-04-30T10:55:06.060Z,88.07
2023-04-30T10:56:09.171Z,87.03
2023-04-30T10:57:14.640Z,85.70
2023-04-30T10:58:30.772Z,80.64
2023-04-30T10:59:28.705Z,79.90
2023-04-30T11:00:27.525Z,79.88
2023-04-30T11:01:24.136Z,76.26
2023-04-30T11:02:21.389Z,76.24
2023-04-30T11:03:18.254Z,78.00
2023-04-30T11:04:15.046Z,74.41
2023-04-30T11:05:15.636Z,76.56
2023-04-30T11:06:20.093Z,79.92
2023-04-30T11:07:16.932Z,75.94
2023-04-30T11:08:13.745Z,73.38
2023-04-30T11:09:10.445Z,71.42
2023-04-30T11:10:08.806Z,73.33
2023-04-30T11:11:08.909Z,74.56
2023-04-30T11:12:11.197Z,72.65
2023-04-30T11:13:10.350Z,73.90
2023-04-30T11:14:07.166Z,75.47
2023-04-30T11:15:12.980Z,76.69
2023-04-30T11:16:09.920Z,79.31
2023-04-30T11:17:06.747Z,82.37
2023-04-30T11:18:03.620Z,85.83
2023-04-30T11:19:09.472Z,85.89
2023-04-30T11:20:12.563Z,85.36
2023-04-30T11:21:09.942Z,85.14
2023-04-30T11:22:07.353Z,84.19
2023-04-30T11:23:21.789Z,82.47
2023-04-30T11:24:51.929Z,81.21
2023-04-30T11:25:48.892Z,81.15
2023-04-30T11:27:07.086Z,81.71
2023-04-30T11:28:03.948Z,80.90
2023-04-30T11:29:01.468Z,82.83
2023-04-30T11:29:59.575Z,80.41
2023-04-30T11:30:57.159Z,78.79
2023-04-30T11:31:53.912Z,79.81
2023-04-30T11:32:51.933Z,77.46
2023-04-30T11:33:49.309Z,78.15
2023-04-30T11:34:46.880Z,76.61
2023-04-30T11:35:43.771Z,73.32
2023-04-30T11:36:41.574Z,72.38
2023-04-30T11:37:39.918Z,71.65
2023-04-30T11:38:37.884Z,68.15
2023-04-30T11:39:36.638Z,67.24
2023-04-30T11:40:35.824Z,70.12
2023-04-30T11:41:32.410Z,68.80
2023-04-30T11:42:30.857Z,70.17
2023-04-30T11:43:29.503Z,72.94
2023-04-30T11:44:27.016Z,70.75
2023-04-30T11:45:23.918Z,70.89
2023-04-30T11:46:20.696Z,71.68
2023-04-30T11:47:17.338Z,71.18
2023-04-30T11:48:14.723Z,71.24
2023-04-30T11:49:11.390Z,72.21
2023-04-30T11:50:27.654Z,73.05
2023-04-30T11:51:25.193Z,69.92
2023-04-30T11:52:22.034Z,71.23
2023-04-30T11:53:19.132Z,72.68
2023-04-30T11:54:16.698Z,74.46
2023-04-30T11:55:15.967Z,75.27
2023-04-30T11:56:12.614Z,74.27
2023-04-30T11:57:09.284Z,77.72
2023-04-30T11:58:11.049Z,75.34
2023-04-30T11:59:11.438Z,79.72
2023-04-30T12:00:11.051Z,74.83
2023-04-30T12:01:11.961Z,73.46
2023-04-30T12:02:09.664Z,71.63
2023-04-30T12:03:07.114Z,75.09
2023-04-30T12:04:04.537Z,75.74
2023-04-30T12:05:01.286Z,77.89
2023-04-30T12:05:58.024Z,80.36
2023-04-30T12:06:54.708Z,81.16
2023-04-30T12:07:59.842Z,82.59
2023-04-30T12:08:58.142Z,83.97
2023-04-30T12:09:56.326Z,83.32
2023-04-30T12:10:53.419Z,80.33
2023-04-30T12:11:50.125Z,81.54
2023-04-30T12:12:52.872Z,81.35
2023-04-30T12:13:54.862Z,84.76
2023-04-30T12:14:51.636Z,86.13
2023-04-30T12:15:59.410Z,86.22
2023-04-30T12:16:56.635Z,86.71
2023-04-30T12:17:55.318Z,87.91
2023-04-30T12:18:52.897Z,86.88
2023-04-30T12:19:49.854Z,85.83
2023-04-30T12:20:46.492Z,84.88
2023-04-30T12:21:46.819Z,84.40
2023-04-30T12:22:44.368Z,84.77
2023-04-30T12:23:41.660Z,82.61
2023-04-30T12:24:38.332Z,81.10
2023-04-30T12:25:43.877Z,80.11
2023-04-30T12:26:42.197Z,81.98
2023-04-30T12:27:39.004Z,82.21
2023-04-30T12:28:36.045Z,80.96
2023-04-30T12:29:32.782Z,81.54
2023-04-30T12:30:30.488Z,81.04
2023-04-30T12:31:27.690Z,80.78
2023-04-30T12:32:24.541Z,77.17
2023-04-30T12:33:21.439Z,74.79
2023-04-30T12:34:19.070Z,79.49
2023-04-30T12:35:17.586Z,72.25
2023-04-30T12:36:14.260Z,73.27